sensor_id;sensor_type;location;lat;lon;timestamp;P1;durP1;ratioP1;P2;durP2;ratioP2
14235;SDS011;7202;50.718;7.072;2023-09-19T00:00:44;1.90;;;1.20;;
14235;SDS011;7202;50.718;7.072;2023-09-19T00:03:14;2.28;;;1.27;;
14235;SDS011;7202;50.718;7.072;2023-09-19T00:05:43;5.53;;;1.55;;
14235;SDS011;7202;50.718;7.072;2023-09-19T00:08:13;3.33;;;1.40;;
14235;SDS011;7202;50.718;7.072;2023-09-19T00:10:43;2.97;;;1.40;;
14235;SDS011;7202;50.718;7.072;2023-09-19T00:13:12;5.25;;;1.45;;
14235;SDS011;7202;50.718;7.072;2023-09-19T00:15:43;6.90;;;1.40;;
14235;SDS011;7202;50.718;7.072;2023-09-19T00:18:16;1.83;;;1.17;;
14235;SDS011;7202;50.718;7.072;2023-09-19T00:20:47;5.28;;;1.58;;
14235;SDS011;7202;50.718;7.072;2023-09-19T00:23:17;2.67;;;1.33;;
14235;SDS011;7202;50.718;7.072;2023-09-19T00:25:48;2.67;;;1.25;;
14235;SDS011;7202;50.718;7.072;2023-09-19T00:28:17;4.10;;;1.58;;
14235;SDS011;7202;50.718;7.072;2023-09-19T00:30:47;4.07;;;1.73;;
14235;SDS011;7202;50.718;7.072;2023-09-19T00:33:18;2.83;;;1.55;;
14235;SDS011;7202;50.718;7.072;2023-09-19T00:35:47;7.70;;;1.38;;
14235;SDS011;7202;50.718;7.072;2023-09-19T00:38:16;2.92;;;1.45;;
14235;SDS011;7202;50.718;7.072;2023-09-19T00:40:49;3.10;;;1.50;;
14235;SDS011;7202;50.718;7.072;2023-09-19T00:43:19;5.25;;;1.50;;
14235;SDS011;7202;50.718;7.072;2023-09-19T00:45:48;3.17;;;1.13;;
14235;SDS011;7202;50.718;7.072;2023-09-19T00:48:19;6.22;;;1.10;;
14235;SDS011;7202;50.718;7.072;2023-09-19T00:50:48;3.78;;;1.60;;
14235;SDS011;7202;50.718;7.072;2023-09-19T00:53:18;8.00;;;1.33;;
14235;SDS011;7202;50.718;7.072;2023-09-19T00:55:51;6.40;;;1.70;;
14235;SDS011;7202;50.718;7.072;2023-09-19T00:58:20;2.65;;;1.42;;
14235;SDS011;7202;50.718;7.072;2023-09-19T01:00:49;5.93;;;1.67;;
14235;SDS011;7202;50.718;7.072;2023-09-19T01:03:20;4.45;;;1.50;;
14235;SDS011;7202;50.718;7.072;2023-09-19T01:05:50;5.55;;;1.60;;
14235;SDS011;7202;50.718;7.072;2023-09-19T01:08:19;5.43;;;1.90;;
14235;SDS011;7202;50.718;7.072;2023-09-19T01:10:50;4.63;;;1.83;;
14235;SDS011;7202;50.718;7.072;2023-09-19T01:13:26;2.88;;;1.25;;
14235;SDS011;7202;50.718;7.072;2023-09-19T01:16:07;3.35;;;1.60;;
14235;SDS011;7202;50.718;7.072;2023-09-19T01:18:43;2.70;;;1.15;;
14235;SDS011;7202;50.718;7.072;2023-09-19T01:21:20;4.15;;;1.25;;
14235;SDS011;7202;50.718;7.072;2023-09-19T01:24:08;3.08;;;1.40;;
14235;SDS011;7202;50.718;7.072;2023-09-19T01:27:06;4.35;;;1.63;;
14235;SDS011;7202;50.718;7.072;2023-09-19T01:29:51;2.65;;;1.33;;
14235;SDS011;7202;50.718;7.072;2023-09-19T01:32:22;5.50;;;1.70;;
14235;SDS011;7202;50.718;7.072;2023-09-19T01:34:53;3.95;;;1.40;;
14235;SDS011;7202;50.718;7.072;2023-09-19T01:37:24;6.50;;;1.52;;
14235;SDS011;7202;50.718;7.072;2023-09-19T01:39:55;5.68;;;1.60;;
14235;SDS011;7202;50.718;7.072;2023-09-19T01:42:37;6.78;;;1.77;;
14235;SDS011;7202;50.718;7.072;2023-09-19T01:45:12;3.72;;;1.35;;
14235;SDS011;7202;50.718;7.072;2023-09-19T01:47:46;5.13;;;1.58;;
14235;SDS011;7202;50.718;7.072;2023-09-19T01:50:20;6.50;;;1.67;;
14235;SDS011;7202;50.718;7.072;2023-09-19T01:52:59;5.80;;;1.90;;
14235;SDS011;7202;50.718;7.072;2023-09-19T01:55:36;6.45;;;1.60;;
14235;SDS011;7202;50.718;7.072;2023-09-19T01:58:14;3.38;;;1.20;;
14235;SDS011;7202;50.718;7.072;2023-09-19T02:00:48;3.05;;;1.23;;
14235;SDS011;7202;50.718;7.072;2023-09-19T02:03:20;4.22;;;1.33;;
14235;SDS011;7202;50.718;7.072;2023-09-19T02:05:50;2.08;;;1.13;;
14235;SDS011;7202;50.718;7.072;2023-09-19T02:08:21;7.22;;;1.27;;
14235;SDS011;7202;50.718;7.072;2023-09-19T02:10:51;4.93;;;1.58;;
14235;SDS011;7202;50.718;7.072;2023-09-19T02:13:20;5.88;;;1.63;;
14235;SDS011;7202;50.718;7.072;2023-09-19T02:15:51;8.40;;;1.98;;
14235;SDS011;7202;50.718;7.072;2023-09-19T02:18:21;4.90;;;1.30;;
14235;SDS011;7202;50.718;7.072;2023-09-19T02:20:49;5.40;;;1.98;;
14235;SDS011;7202;50.718;7.072;2023-09-19T02:23:19;6.43;;;1.70;;
14235;SDS011;7202;50.718;7.072;2023-09-19T02:25:52;6.43;;;2.00;;
14235;SDS011;7202;50.718;7.072;2023-09-19T02:28:21;8.07;;;1.70;;
14235;SDS011;7202;50.718;7.072;2023-09-19T02:30:50;3.65;;;1.30;;
14235;SDS011;7202;50.718;7.072;2023-09-19T02:33:20;5.75;;;1.80;;
14235;SDS011;7202;50.718;7.072;2023-09-19T02:35:54;5.22;;;1.58;;
14235;SDS011;7202;50.718;7.072;2023-09-19T02:38:24;3.75;;;1.45;;
14235;SDS011;7202;50.718;7.072;2023-09-19T02:40:53;5.63;;;1.60;;
14235;SDS011;7202;50.718;7.072;2023-09-19T02:43:22;4.25;;;1.60;;
14235;SDS011;7202;50.718;7.072;2023-09-19T02:45:52;5.35;;;1.90;;
14235;SDS011;7202;50.718;7.072;2023-09-19T02:48:22;5.65;;;1.73;;
14235;SDS011;7202;50.718;7.072;2023-09-19T02:50:52;4.90;;;1.98;;
14235;SDS011;7202;50.718;7.072;2023-09-19T02:53:21;6.28;;;1.70;;
14235;SDS011;7202;50.718;7.072;2023-09-19T02:55:50;7.65;;;1.85;;
14235;SDS011;7202;50.718;7.072;2023-09-19T02:58:21;6.15;;;2.05;;
14235;SDS011;7202;50.718;7.072;2023-09-19T03:00:51;6.63;;;1.80;;
14235;SDS011;7202;50.718;7.072;2023-09-19T03:03:23;6.35;;;2.53;;
14235;SDS011;7202;50.718;7.072;2023-09-19T03:05:53;8.35;;;1.77;;
14235;SDS011;7202;50.718;7.072;2023-09-19T03:08:22;4.72;;;1.80;;
14235;SDS011;7202;50.718;7.072;2023-09-19T03:10:51;4.45;;;1.73;;
14235;SDS011;7202;50.718;7.072;2023-09-19T03:13:20;5.35;;;1.77;;
14235;SDS011;7202;50.718;7.072;2023-09-19T03:15:49;5.72;;;1.83;;
14235;SDS011;7202;50.718;7.072;2023-09-19T03:18:24;5.43;;;1.83;;
14235;SDS011;7202;50.718;7.072;2023-09-19T03:20:54;7.13;;;1.98;;
14235;SDS011;7202;50.718;7.072;2023-09-19T03:23:23;8.73;;;2.13;;
14235;SDS011;7202;50.718;7.072;2023-09-19T03:25:53;8.45;;;1.95;;
14235;SDS011;7202;50.718;7.072;2023-09-19T03:28:23;6.60;;;2.13;;
14235;SDS011;7202;50.718;7.072;2023-09-19T03:31:00;6.03;;;1.90;;
14235;SDS011;7202;50.718;7.072;2023-09-19T03:33:32;8.50;;;2.08;;
14235;SDS011;7202;50.718;7.072;2023-09-19T03:36:02;6.30;;;2.13;;
14235;SDS011;7202;50.718;7.072;2023-09-19T03:38:33;5.03;;;1.55;;
14235;SDS011;7202;50.718;7.072;2023-09-19T03:41:02;5.97;;;1.88;;
14235;SDS011;7202;50.718;7.072;2023-09-19T03:43:34;6.57;;;1.52;;
14235;SDS011;7202;50.718;7.072;2023-09-19T03:46:03;6.07;;;2.00;;
14235;SDS011;7202;50.718;7.072;2023-09-19T03:48:35;5.15;;;2.28;;
14235;SDS011;7202;50.718;7.072;2023-09-19T03:51:03;5.45;;;2.20;;
14235;SDS011;7202;50.718;7.072;2023-09-19T03:53:32;8.57;;;2.10;;
14235;SDS011;7202;50.718;7.072;2023-09-19T03:56:01;5.25;;;2.03;;
14235;SDS011;7202;50.718;7.072;2023-09-19T03:58:32;5.60;;;2.03;;
14235;SDS011;7202;50.718;7.072;2023-09-19T04:01:06;5.30;;;1.95;;
14235;SDS011;7202;50.718;7.072;2023-09-19T04:03:36;5.97;;;1.80;;
14235;SDS011;7202;50.718;7.072;2023-09-19T04:06:14;6.53;;;1.77;;
14235;SDS011;7202;50.718;7.072;2023-09-19T04:08:43;3.83;;;1.92;;
14235;SDS011;7202;50.718;7.072;2023-09-19T04:11:13;6.93;;;1.55;;
14235;SDS011;7202;50.718;7.072;2023-09-19T04:13:41;9.55;;;1.92;;
14235;SDS011;7202;50.718;7.072;2023-09-19T04:16:10;6.80;;;2.20;;
14235;SDS011;7202;50.718;7.072;2023-09-19T04:18:40;6.50;;;1.75;;
14235;SDS011;7202;50.718;7.072;2023-09-19T04:21:09;7.15;;;2.30;;
14235;SDS011;7202;50.718;7.072;2023-09-19T04:23:38;6.95;;;1.88;;
14235;SDS011;7202;50.718;7.072;2023-09-19T04:26:07;6.07;;;2.03;;
14235;SDS011;7202;50.718;7.072;2023-09-19T04:28:35;9.20;;;2.20;;
14235;SDS011;7202;50.718;7.072;2023-09-19T04:31:05;5.82;;;1.95;;
14235;SDS011;7202;50.718;7.072;2023-09-19T04:33:35;5.47;;;1.73;;
14235;SDS011;7202;50.718;7.072;2023-09-19T04:36:06;9.05;;;2.33;;
14235;SDS011;7202;50.718;7.072;2023-09-19T04:38:55;8.70;;;2.30;;
14235;SDS011;7202;50.718;7.072;2023-09-19T04:41:24;8.13;;;1.73;;
14235;SDS011;7202;50.718;7.072;2023-09-19T04:43:53;7.63;;;2.00;;
14235;SDS011;7202;50.718;7.072;2023-09-19T04:46:22;7.43;;;2.25;;
14235;SDS011;7202;50.718;7.072;2023-09-19T04:48:50;6.03;;;2.05;;
14235;SDS011;7202;50.718;7.072;2023-09-19T04:51:20;9.93;;;2.13;;
14235;SDS011;7202;50.718;7.072;2023-09-19T04:53:49;5.70;;;2.05;;
14235;SDS011;7202;50.718;7.072;2023-09-19T04:56:18;3.65;;;1.50;;
14235;SDS011;7202;50.718;7.072;2023-09-19T04:58:47;6.05;;;1.60;;
14235;SDS011;7202;50.718;7.072;2023-09-19T05:01:16;4.10;;;1.70;;
14235;SDS011;7202;50.718;7.072;2023-09-19T05:03:45;4.97;;;1.75;;
14235;SDS011;7202;50.718;7.072;2023-09-19T05:06:20;5.65;;;2.10;;
14235;SDS011;7202;50.718;7.072;2023-09-19T05:08:49;5.68;;;1.75;;
14235;SDS011;7202;50.718;7.072;2023-09-19T05:11:19;3.75;;;1.70;;
14235;SDS011;7202;50.718;7.072;2023-09-19T05:13:49;5.35;;;1.63;;
14235;SDS011;7202;50.718;7.072;2023-09-19T05:16:19;4.75;;;1.90;;
14235;SDS011;7202;50.718;7.072;2023-09-19T05:18:49;6.07;;;2.30;;
14235;SDS011;7202;50.718;7.072;2023-09-19T05:21:17;4.32;;;2.00;;
14235;SDS011;7202;50.718;7.072;2023-09-19T05:23:48;8.05;;;2.45;;
14235;SDS011;7202;50.718;7.072;2023-09-19T05:26:16;6.25;;;2.22;;
14235;SDS011;7202;50.718;7.072;2023-09-19T05:28:45;5.38;;;2.03;;
14235;SDS011;7202;50.718;7.072;2023-09-19T05:31:15;7.40;;;2.25;;
14235;SDS011;7202;50.718;7.072;2023-09-19T05:33:44;5.35;;;1.80;;
14235;SDS011;7202;50.718;7.072;2023-09-19T05:36:12;6.68;;;2.88;;
14235;SDS011;7202;50.718;7.072;2023-09-19T05:38:43;9.60;;;2.15;;
14235;SDS011;7202;50.718;7.072;2023-09-19T05:41:13;6.30;;;1.80;;
14235;SDS011;7202;50.718;7.072;2023-09-19T05:43:42;7.28;;;2.17;;
14235;SDS011;7202;50.718;7.072;2023-09-19T05:46:11;8.18;;;2.47;;
14235;SDS011;7202;50.718;7.072;2023-09-19T05:48:40;9.90;;;2.33;;
14235;SDS011;7202;50.718;7.072;2023-09-19T05:51:10;4.70;;;1.92;;
14235;SDS011;7202;50.718;7.072;2023-09-19T05:53:39;5.38;;;2.00;;
14235;SDS011;7202;50.718;7.072;2023-09-19T05:56:10;9.48;;;2.90;;
14235;SDS011;7202;50.718;7.072;2023-09-19T05:58:41;10.30;;;2.58;;
14235;SDS011;7202;50.718;7.072;2023-09-19T06:01:11;12.48;;;2.63;;
14235;SDS011;7202;50.718;7.072;2023-09-19T06:03:40;7.65;;;2.40;;
14235;SDS011;7202;50.718;7.072;2023-09-19T06:06:09;9.32;;;2.58;;
14235;SDS011;7202;50.718;7.072;2023-09-19T06:08:38;6.30;;;2.17;;
14235;SDS011;7202;50.718;7.072;2023-09-19T06:11:06;6.90;;;1.90;;
14235;SDS011;7202;50.718;7.072;2023-09-19T06:13:36;5.53;;;2.30;;
14235;SDS011;7202;50.718;7.072;2023-09-19T06:16:07;6.60;;;2.20;;
14235;SDS011;7202;50.718;7.072;2023-09-19T06:18:36;8.25;;;2.53;;
14235;SDS011;7202;50.718;7.072;2023-09-19T06:21:05;7.93;;;2.45;;
14235;SDS011;7202;50.718;7.072;2023-09-19T06:23:35;6.90;;;1.98;;
14235;SDS011;7202;50.718;7.072;2023-09-19T06:26:04;2.90;;;1.67;;
14235;SDS011;7202;50.718;7.072;2023-09-19T06:28:34;4.82;;;1.70;;
14235;SDS011;7202;50.718;7.072;2023-09-19T06:31:03;8.95;;;2.30;;
14235;SDS011;7202;50.718;7.072;2023-09-19T06:33:38;3.60;;;1.92;;
14235;SDS011;7202;50.718;7.072;2023-09-19T06:36:07;8.70;;;2.58;;
14235;SDS011;7202;50.718;7.072;2023-09-19T06:38:36;6.35;;;2.40;;
14235;SDS011;7202;50.718;7.072;2023-09-19T06:41:05;7.65;;;2.25;;
14235;SDS011;7202;50.718;7.072;2023-09-19T06:43:35;11.90;;;3.28;;
14235;SDS011;7202;50.718;7.072;2023-09-19T06:46:04;11.68;;;2.63;;
14235;SDS011;7202;50.718;7.072;2023-09-19T06:48:34;6.22;;;2.50;;
14235;SDS011;7202;50.718;7.072;2023-09-19T06:51:04;8.60;;;2.67;;
14235;SDS011;7202;50.718;7.072;2023-09-19T06:53:32;13.55;;;2.80;;
14235;SDS011;7202;50.718;7.072;2023-09-19T06:56:03;10.05;;;2.60;;
14235;SDS011;7202;50.718;7.072;2023-09-19T06:58:33;10.90;;;2.60;;
14235;SDS011;7202;50.718;7.072;2023-09-19T07:01:03;12.23;;;2.65;;
14235;SDS011;7202;50.718;7.072;2023-09-19T07:03:32;9.38;;;2.47;;
14235;SDS011;7202;50.718;7.072;2023-09-19T07:06:00;7.90;;;2.50;;
14235;SDS011;7202;50.718;7.072;2023-09-19T07:08:32;11.45;;;2.38;;
14235;SDS011;7202;50.718;7.072;2023-09-19T07:11:01;7.68;;;2.35;;
14235;SDS011;7202;50.718;7.072;2023-09-19T07:13:33;9.30;;;2.80;;
14235;SDS011;7202;50.718;7.072;2023-09-19T07:16:02;7.38;;;2.33;;
14235;SDS011;7202;50.718;7.072;2023-09-19T07:18:31;9.80;;;2.38;;
14235;SDS011;7202;50.718;7.072;2023-09-19T07:21:00;9.45;;;2.80;;
14235;SDS011;7202;50.718;7.072;2023-09-19T07:23:33;6.90;;;2.28;;
14235;SDS011;7202;50.718;7.072;2023-09-19T07:26:02;9.77;;;2.40;;
14235;SDS011;7202;50.718;7.072;2023-09-19T07:28:32;6.95;;;2.10;;
14235;SDS011;7202;50.718;7.072;2023-09-19T07:31:02;4.68;;;1.85;;
14235;SDS011;7202;50.718;7.072;2023-09-19T07:33:32;10.48;;;2.20;;
14235;SDS011;7202;50.718;7.072;2023-09-19T07:36:00;9.48;;;2.75;;
14235;SDS011;7202;50.718;7.072;2023-09-19T07:38:29;9.98;;;2.47;;
14235;SDS011;7202;50.718;7.072;2023-09-19T07:41:01;6.05;;;2.15;;
14235;SDS011;7202;50.718;7.072;2023-09-19T07:43:30;11.05;;;2.47;;
14235;SDS011;7202;50.718;7.072;2023-09-19T07:46:02;6.38;;;2.30;;
14235;SDS011;7202;50.718;7.072;2023-09-19T07:48:33;6.10;;;2.65;;
14235;SDS011;7202;50.718;7.072;2023-09-19T07:51:03;9.60;;;2.10;;
14235;SDS011;7202;50.718;7.072;2023-09-19T07:53:33;8.88;;;2.70;;
14235;SDS011;7202;50.718;7.072;2023-09-19T07:56:04;6.50;;;2.08;;
14235;SDS011;7202;50.718;7.072;2023-09-19T07:58:34;7.70;;;2.05;;
14235;SDS011;7202;50.718;7.072;2023-09-19T08:01:03;11.13;;;2.45;;
14235;SDS011;7202;50.718;7.072;2023-09-19T08:03:33;6.95;;;1.85;;
14235;SDS011;7202;50.718;7.072;2023-09-19T08:06:07;8.32;;;2.63;;
14235;SDS011;7202;50.718;7.072;2023-09-19T08:08:36;7.82;;;2.55;;
14235;SDS011;7202;50.718;7.072;2023-09-19T08:11:06;13.25;;;2.50;;
14235;SDS011;7202;50.718;7.072;2023-09-19T08:13:38;9.75;;;2.35;;
14235;SDS011;7202;50.718;7.072;2023-09-19T08:16:10;9.98;;;2.55;;
14235;SDS011;7202;50.718;7.072;2023-09-19T08:18:39;8.15;;;2.50;;
14235;SDS011;7202;50.718;7.072;2023-09-19T08:21:08;7.85;;;2.00;;
14235;SDS011;7202;50.718;7.072;2023-09-19T08:23:38;8.98;;;2.38;;
14235;SDS011;7202;50.718;7.072;2023-09-19T08:26:08;6.70;;;2.17;;
14235;SDS011;7202;50.718;7.072;2023-09-19T08:28:37;9.00;;;1.98;;
14235;SDS011;7202;50.718;7.072;2023-09-19T08:31:08;12.50;;;2.38;;
14235;SDS011;7202;50.718;7.072;2023-09-19T08:33:37;6.80;;;2.50;;
14235;SDS011;7202;50.718;7.072;2023-09-19T08:36:07;8.05;;;2.03;;
14235;SDS011;7202;50.718;7.072;2023-09-19T08:38:36;9.65;;;2.10;;
14235;SDS011;7202;50.718;7.072;2023-09-19T08:41:07;11.82;;;2.70;;
14235;SDS011;7202;50.718;7.072;2023-09-19T08:43:37;13.73;;;2.30;;
14235;SDS011;7202;50.718;7.072;2023-09-19T08:46:09;9.00;;;2.30;;
14235;SDS011;7202;50.718;7.072;2023-09-19T08:48:44;8.93;;;2.08;;
14235;SDS011;7202;50.718;7.072;2023-09-19T08:51:18;8.60;;;2.47;;
14235;SDS011;7202;50.718;7.072;2023-09-19T08:53:56;6.00;;;2.20;;
14235;SDS011;7202;50.718;7.072;2023-09-19T08:56:33;8.52;;;2.05;;
14235;SDS011;7202;50.718;7.072;2023-09-19T08:59:02;6.78;;;1.98;;
14235;SDS011;7202;50.718;7.072;2023-09-19T09:01:31;13.20;;;2.25;;
14235;SDS011;7202;50.718;7.072;2023-09-19T09:04:01;7.88;;;1.98;;
14235;SDS011;7202;50.718;7.072;2023-09-19T09:06:30;12.63;;;2.15;;
14235;SDS011;7202;50.718;7.072;2023-09-19T09:09:00;8.93;;;2.42;;
14235;SDS011;7202;50.718;7.072;2023-09-19T09:11:30;6.38;;;2.00;;
14235;SDS011;7202;50.718;7.072;2023-09-19T09:14:02;6.28;;;1.95;;
14235;SDS011;7202;50.718;7.072;2023-09-19T09:16:31;6.78;;;1.95;;
14235;SDS011;7202;50.718;7.072;2023-09-19T09:19:00;5.75;;;1.92;;
14235;SDS011;7202;50.718;7.072;2023-09-19T09:21:28;7.57;;;1.95;;
14235;SDS011;7202;50.718;7.072;2023-09-19T09:26:56;9.05;;;2.42;;
14235;SDS011;7202;50.718;7.072;2023-09-19T09:29:41;5.57;;;1.67;;
14235;SDS011;7202;50.718;7.072;2023-09-19T09:32:17;6.32;;;1.90;;
14235;SDS011;7202;50.718;7.072;2023-09-19T09:34:50;5.07;;;1.50;;
14235;SDS011;7202;50.718;7.072;2023-09-19T09:37:20;4.90;;;1.58;;
14235;SDS011;7202;50.718;7.072;2023-09-19T09:39:52;5.30;;;1.90;;
14235;SDS011;7202;50.718;7.072;2023-09-19T09:42:30;6.72;;;1.80;;
14235;SDS011;7202;50.718;7.072;2023-09-19T09:45:15;6.70;;;2.10;;
14235;SDS011;7202;50.718;7.072;2023-09-19T09:47:46;7.28;;;2.38;;
14235;SDS011;7202;50.718;7.072;2023-09-19T09:50:25;3.97;;;1.67;;
14235;SDS011;7202;50.718;7.072;2023-09-19T09:53:19;7.22;;;2.00;;
14235;SDS011;7202;50.718;7.072;2023-09-19T09:55:58;6.15;;;1.55;;
14235;SDS011;7202;50.718;7.072;2023-09-19T09:58:35;6.30;;;2.22;;
14235;SDS011;7202;50.718;7.072;2023-09-19T10:01:05;5.30;;;1.75;;
14235;SDS011;7202;50.718;7.072;2023-09-19T10:03:38;8.43;;;2.17;;
14235;SDS011;7202;50.718;7.072;2023-09-19T10:06:09;7.93;;;2.22;;
14235;SDS011;7202;50.718;7.072;2023-09-19T10:08:58;5.93;;;1.90;;
14235;SDS011;7202;50.718;7.072;2023-09-19T10:11:42;6.88;;;2.08;;
14235;SDS011;7202;50.718;7.072;2023-09-19T10:14:14;4.65;;;1.63;;
14235;SDS011;7202;50.718;7.072;2023-09-19T10:16:45;6.10;;;1.83;;
14235;SDS011;7202;50.718;7.072;2023-09-19T10:19:16;6.43;;;1.50;;
14235;SDS011;7202;50.718;7.072;2023-09-19T10:21:53;6.57;;;2.05;;
14235;SDS011;7202;50.718;7.072;2023-09-19T10:24:23;4.88;;;1.65;;
14235;SDS011;7202;50.718;7.072;2023-09-19T10:26:53;7.88;;;2.08;;
14235;SDS011;7202;50.718;7.072;2023-09-19T10:29:24;8.10;;;1.90;;
14235;SDS011;7202;50.718;7.072;2023-09-19T10:31:56;4.85;;;1.70;;
14235;SDS011;7202;50.718;7.072;2023-09-19T10:34:28;4.53;;;1.63;;
14235;SDS011;7202;50.718;7.072;2023-09-19T10:36:58;6.13;;;1.95;;
14235;SDS011;7202;50.718;7.072;2023-09-19T10:39:32;5.50;;;1.80;;
14235;SDS011;7202;50.718;7.072;2023-09-19T10:42:01;3.88;;;1.60;;
14235;SDS011;7202;50.718;7.072;2023-09-19T10:44:33;5.60;;;1.83;;
14235;SDS011;7202;50.718;7.072;2023-09-19T10:47:10;5.38;;;1.70;;
14235;SDS011;7202;50.718;7.072;2023-09-19T10:49:42;3.00;;;1.58;;
14235;SDS011;7202;50.718;7.072;2023-09-19T10:52:14;6.65;;;2.63;;
14235;SDS011;7202;50.718;7.072;2023-09-19T10:54:46;5.07;;;1.73;;
14235;SDS011;7202;50.718;7.072;2023-09-19T10:57:19;4.22;;;1.65;;
14235;SDS011;7202;50.718;7.072;2023-09-19T11:00:04;5.88;;;2.08;;
14235;SDS011;7202;50.718;7.072;2023-09-19T11:06:01;4.20;;;1.67;;
14235;SDS011;7202;50.718;7.072;2023-09-19T11:08:50;3.53;;;1.67;;
14235;SDS011;7202;50.718;7.072;2023-09-19T11:11:43;4.28;;;1.88;;
14235;SDS011;7202;50.718;7.072;2023-09-19T11:14:29;8.20;;;2.58;;
14235;SDS011;7202;50.718;7.072;2023-09-19T11:20:20;3.58;;;1.75;;
14235;SDS011;7202;50.718;7.072;2023-09-19T11:23:18;5.70;;;2.03;;
14235;SDS011;7202;50.718;7.072;2023-09-19T11:25:50;6.70;;;2.10;;
14235;SDS011;7202;50.718;7.072;2023-09-19T11:28:28;6.85;;;1.85;;
14235;SDS011;7202;50.718;7.072;2023-09-19T11:30:58;4.95;;;1.63;;
14235;SDS011;7202;50.718;7.072;2023-09-19T11:33:27;6.47;;;1.95;;
14235;SDS011;7202;50.718;7.072;2023-09-19T11:36:00;5.05;;;1.60;;
14235;SDS011;7202;50.718;7.072;2023-09-19T11:41:37;8.43;;;1.70;;
14235;SDS011;7202;50.718;7.072;2023-09-19T11:47:05;4.85;;;1.98;;
14235;SDS011;7202;50.718;7.072;2023-09-19T11:49:36;6.78;;;1.67;;
14235;SDS011;7202;50.718;7.072;2023-09-19T11:52:11;5.07;;;1.73;;
14235;SDS011;7202;50.718;7.072;2023-09-19T11:54:54;7.45;;;2.28;;
14235;SDS011;7202;50.718;7.072;2023-09-19T11:57:24;3.85;;;1.50;;
14235;SDS011;7202;50.718;7.072;2023-09-19T11:59:53;7.70;;;1.92;;
14235;SDS011;7202;50.718;7.072;2023-09-19T12:02:27;4.97;;;1.77;;
14235;SDS011;7202;50.718;7.072;2023-09-19T12:05:06;6.32;;;1.45;;
14235;SDS011;7202;50.718;7.072;2023-09-19T12:07:43;4.70;;;1.70;;
14235;SDS011;7202;50.718;7.072;2023-09-19T12:10:14;3.60;;;2.13;;
14235;SDS011;7202;50.718;7.072;2023-09-19T12:12:47;5.10;;;1.70;;
14235;SDS011;7202;50.718;7.072;2023-09-19T12:15:22;3.88;;;1.73;;
14235;SDS011;7202;50.718;7.072;2023-09-19T12:17:55;4.10;;;1.42;;
14235;SDS011;7202;50.718;7.072;2023-09-19T12:20:24;5.07;;;1.83;;
14235;SDS011;7202;50.718;7.072;2023-09-19T12:22:54;5.13;;;1.80;;
14235;SDS011;7202;50.718;7.072;2023-09-19T12:25:23;6.28;;;1.90;;
14235;SDS011;7202;50.718;7.072;2023-09-19T12:27:52;4.90;;;1.58;;
14235;SDS011;7202;50.718;7.072;2023-09-19T12:30:27;4.47;;;1.70;;
14235;SDS011;7202;50.718;7.072;2023-09-19T12:33:00;5.78;;;1.63;;
14235;SDS011;7202;50.718;7.072;2023-09-19T12:35:31;6.72;;;2.03;;
14235;SDS011;7202;50.718;7.072;2023-09-19T12:38:03;5.53;;;1.55;;
14235;SDS011;7202;50.718;7.072;2023-09-19T12:40:33;5.05;;;1.60;;
14235;SDS011;7202;50.718;7.072;2023-09-19T12:43:04;7.28;;;1.80;;
14235;SDS011;7202;50.718;7.072;2023-09-19T12:45:34;5.30;;;1.38;;
14235;SDS011;7202;50.718;7.072;2023-09-19T12:48:20;7.60;;;1.52;;
14235;SDS011;7202;50.718;7.072;2023-09-19T12:51:02;3.88;;;1.40;;
14235;SDS011;7202;50.718;7.072;2023-09-19T12:53:36;4.22;;;1.42;;
14235;SDS011;7202;50.718;7.072;2023-09-19T12:56:09;3.70;;;1.50;;
14235;SDS011;7202;50.718;7.072;2023-09-19T12:58:49;4.63;;;1.50;;
14235;SDS011;7202;50.718;7.072;2023-09-19T13:01:21;6.10;;;1.42;;
14235;SDS011;7202;50.718;7.072;2023-09-19T13:04:13;14.35;;;2.72;;
14235;SDS011;7202;50.718;7.072;2023-09-19T13:06:45;3.70;;;1.42;;
14235;SDS011;7202;50.718;7.072;2023-09-19T13:09:18;3.55;;;1.60;;
14235;SDS011;7202;50.718;7.072;2023-09-19T13:11:48;2.58;;;1.23;;
14235;SDS011;7202;50.718;7.072;2023-09-19T13:14:19;5.55;;;1.73;;
14235;SDS011;7202;50.718;7.072;2023-09-19T13:16:53;5.78;;;1.30;;
14235;SDS011;7202;50.718;7.072;2023-09-19T13:19:37;5.40;;;1.33;;
14235;SDS011;7202;50.718;7.072;2023-09-19T13:25:09;2.90;;;1.25;;
14235;SDS011;7202;50.718;7.072;2023-09-19T13:27:41;2.00;;;0.90;;
14235;SDS011;7202;50.718;7.072;2023-09-19T13:30:11;4.07;;;0.93;;
14235;SDS011;7202;50.718;7.072;2023-09-19T13:32:40;3.58;;;1.30;;
14235;SDS011;7202;50.718;7.072;2023-09-19T13:35:10;3.30;;;1.20;;
14235;SDS011;7202;50.718;7.072;2023-09-19T13:37:40;2.80;;;1.02;;
14235;SDS011;7202;50.718;7.072;2023-09-19T13:40:12;6.68;;;1.30;;
14235;SDS011;7202;50.718;7.072;2023-09-19T13:42:42;4.35;;;1.35;;
14235;SDS011;7202;50.718;7.072;2023-09-19T13:45:11;3.50;;;1.42;;
14235;SDS011;7202;50.718;7.072;2023-09-19T13:47:42;2.55;;;1.00;;
14235;SDS011;7202;50.718;7.072;2023-09-19T13:50:11;4.45;;;1.40;;
14235;SDS011;7202;50.718;7.072;2023-09-19T13:52:41;4.38;;;1.30;;
14235;SDS011;7202;50.718;7.072;2023-09-19T13:55:11;3.13;;;1.17;;
14235;SDS011;7202;50.718;7.072;2023-09-19T13:57:41;3.58;;;1.00;;
14235;SDS011;7202;50.718;7.072;2023-09-19T14:00:11;5.72;;;1.33;;
14235;SDS011;7202;50.718;7.072;2023-09-19T14:02:43;3.42;;;1.10;;
14235;SDS011;7202;50.718;7.072;2023-09-19T14:05:13;4.22;;;1.20;;
14235;SDS011;7202;50.718;7.072;2023-09-19T14:07:43;4.72;;;1.80;;
14235;SDS011;7202;50.718;7.072;2023-09-19T14:10:13;25.20;;;4.18;;
14235;SDS011;7202;50.718;7.072;2023-09-19T14:12:44;2.15;;;0.93;;
14235;SDS011;7202;50.718;7.072;2023-09-19T14:15:13;3.00;;;1.10;;
14235;SDS011;7202;50.718;7.072;2023-09-19T14:17:42;2.92;;;1.38;;
14235;SDS011;7202;50.718;7.072;2023-09-19T14:20:11;1.90;;;0.90;;
14235;SDS011;7202;50.718;7.072;2023-09-19T14:22:40;5.45;;;1.10;;
14235;SDS011;7202;50.718;7.072;2023-09-19T14:25:09;3.75;;;1.20;;
14235;SDS011;7202;50.718;7.072;2023-09-19T14:27:39;3.58;;;1.20;;
14235;SDS011;7202;50.718;7.072;2023-09-19T14:30:08;3.40;;;1.10;;
14235;SDS011;7202;50.718;7.072;2023-09-19T14:32:37;3.88;;;1.13;;
14235;SDS011;7202;50.718;7.072;2023-09-19T14:35:06;2.47;;;1.33;;
14235;SDS011;7202;50.718;7.072;2023-09-19T14:37:37;3.30;;;1.00;;
14235;SDS011;7202;50.718;7.072;2023-09-19T14:40:07;2.78;;;0.93;;
14235;SDS011;7202;50.718;7.072;2023-09-19T14:42:39;3.78;;;1.17;;
14235;SDS011;7202;50.718;7.072;2023-09-19T14:45:08;4.10;;;1.40;;
14235;SDS011;7202;50.718;7.072;2023-09-19T14:47:38;2.35;;;1.17;;
14235;SDS011;7202;50.718;7.072;2023-09-19T14:50:07;5.03;;;1.10;;
14235;SDS011;7202;50.718;7.072;2023-09-19T14:52:37;4.47;;;1.02;;
14235;SDS011;7202;50.718;7.072;2023-09-19T14:55:06;2.15;;;0.88;;
14235;SDS011;7202;50.718;7.072;2023-09-19T14:57:42;3.58;;;0.90;;
14235;SDS011;7202;50.718;7.072;2023-09-19T15:00:13;1.88;;;0.90;;
14235;SDS011;7202;50.718;7.072;2023-09-19T15:02:43;2.40;;;1.13;;
14235;SDS011;7202;50.718;7.072;2023-09-19T15:05:15;2.92;;;1.02;;
14235;SDS011;7202;50.718;7.072;2023-09-19T15:07:46;5.07;;;1.30;;
14235;SDS011;7202;50.718;7.072;2023-09-19T15:10:15;3.20;;;1.08;;
14235;SDS011;7202;50.718;7.072;2023-09-19T15:12:46;2.88;;;1.10;;
14235;SDS011;7202;50.718;7.072;2023-09-19T15:15:15;4.47;;;1.00;;
14235;SDS011;7202;50.718;7.072;2023-09-19T15:17:44;1.88;;;0.80;;
14235;SDS011;7202;50.718;7.072;2023-09-19T15:20:14;2.15;;;1.10;;
14235;SDS011;7202;50.718;7.072;2023-09-19T15:22:44;2.08;;;1.13;;
14235;SDS011;7202;50.718;7.072;2023-09-19T15:25:14;8.48;;;2.00;;
14235;SDS011;7202;50.718;7.072;2023-09-19T15:27:43;5.97;;;1.25;;
14235;SDS011;7202;50.718;7.072;2023-09-19T15:30:14;2.13;;;1.02;;
14235;SDS011;7202;50.718;7.072;2023-09-19T15:32:43;3.20;;;1.02;;
14235;SDS011;7202;50.718;7.072;2023-09-19T15:35:12;4.43;;;0.80;;
14235;SDS011;7202;50.718;7.072;2023-09-19T15:37:44;3.63;;;0.95;;
14235;SDS011;7202;50.718;7.072;2023-09-19T15:40:13;4.13;;;1.13;;
14235;SDS011;7202;50.718;7.072;2023-09-19T15:42:42;4.25;;;0.70;;
14235;SDS011;7202;50.718;7.072;2023-09-19T15:45:10;1.83;;;1.10;;